createdAt,value
2023-04-01T00:01:04.799Z,98468.22
2023-04-01T00:03:32.060Z,98478.13
2023-04-01T00:05:59.924Z,98470.31
2023-04-01T00:08:27.650Z,98477.56
2023-04-01T00:10:58.615Z,98470.09
2023-04-01T00:13:27.340Z,98465.47
2023-04-01T00:15:56.041Z,98462.13
2023-04-01T00:18:32.233Z,98471.25
2023-04-01T00:20:59.016Z,98467.94
2023-04-01T00:23:26.078Z,98467.31
2023-04-01T00:25:53.269Z,98470.09
2023-04-01T00:28:22.536Z,98470.09
2023-04-01T00:30:49.693Z,98463.16
2023-04-01T00:33:17.554Z,98475.25
2023-04-01T00:35:45.683Z,98479.75
2023-04-01T00:38:12.900Z,98469.03
2023-04-01T00:40:45.532Z,98471.81
2023-04-01T00:43:16.531Z,98472.16
2023-04-01T00:45:45.842Z,98473.28
2023-04-01T00:48:21.880Z,98477.41
2023-04-01T00:51:04.310Z,98461.41
2023-04-01T00:53:31.838Z,98473.81
2023-04-01T00:56:04.664Z,98476.19
2023-04-01T00:58:32.531Z,98478.28
2023-04-01T01:01:01.170Z,98471.84
2023-04-01T01:03:29.379Z,98479.88
2023-04-01T01:06:05.047Z,98460.88
2023-04-01T01:09:10.269Z,98472.88
2023-04-01T01:11:43.631Z,98458.84
2023-04-01T01:14:42.169Z,98443.97
2023-04-01T01:17:09.063Z,98450.88
2023-04-01T01:19:55.094Z,98454.09
2023-04-01T01:22:36.894Z,98468.50
2023-04-01T01:25:09.859Z,98451.75
2023-04-01T01:27:40.926Z,98449.22
2023-04-01T01:30:53.513Z,98444.50
2023-04-01T01:33:27.175Z,98439.13
2023-04-01T01:35:56.770Z,98439.03
2023-04-01T01:38:31.614Z,98441.31
2023-04-01T01:41:07.657Z,98440.66
2023-04-01T01:43:41.123Z,98426.34
2023-04-01T01:46:20.495Z,98437.94
2023-04-01T01:48:48.835Z,98444.72
2023-04-01T01:51:19.191Z,98430.16
2023-04-01T01:53:52.956Z,98424.34
2023-04-01T01:56:31.998Z,98430.47
2023-04-01T01:59:04.263Z,98435.22
2023-04-01T02:01:33.061Z,98441.00
2023-04-01T02:04:09.164Z,98436.22
2023-04-01T02:06:39.636Z,98415.59
2023-04-01T02:09:07.869Z,98430.38
2023-04-01T02:11:56.348Z,98430.91
2023-04-01T02:14:28.535Z,98420.44
2023-04-01T02:17:16.539Z,98424.25
2023-04-01T02:19:59.514Z,98427.78
2023-04-01T02:22:37.502Z,98434.97
2023-04-01T02:25:10.273Z,98423.81
2023-04-01T02:27:37.607Z,98417.78
2023-04-01T02:30:04.988Z,98435.88
2023-04-01T02:32:32.332Z,98427.72
2023-04-01T02:35:06.956Z,98439.63
2023-04-01T02:37:35.585Z,98421.16
2023-04-01T02:40:08.462Z,98422.75
2023-04-01T02:42:39.497Z,98422.75
2023-04-01T02:45:09.482Z,98429.06
2023-04-01T02:47:40.646Z,98426.59
2023-04-01T02:50:17.533Z,98426.25
2023-04-01T02:52:49.411Z,98431.91
2023-04-01T02:55:16.726Z,98432.91
2023-04-01T02:57:44.053Z,98430.38
2023-04-01T03:00:13.939Z,98431.56
2023-04-01T03:02:41.045Z,98428.06
2023-04-01T03:05:11.728Z,98430.97
2023-04-01T03:07:38.601Z,98435.75
2023-04-01T03:10:06.987Z,98440.47
2023-04-01T03:12:33.879Z,98437.09
2023-04-01T03:15:10.941Z,98440.41
2023-04-01T03:17:40.508Z,98429.59
2023-04-01T03:20:11.720Z,98445.22
2023-04-01T03:22:48.169Z,98452.53
2023-04-01T03:25:15.600Z,98438.72
2023-04-01T03:27:42.435Z,98448.19
2023-04-01T03:30:10.655Z,98439.91
2023-04-01T03:32:46.208Z,98452.16
2023-04-01T03:35:17.952Z,98439.41
2023-04-01T03:37:46.086Z,98451.81
2023-04-01T03:40:13.042Z,98443.19
2023-04-01T03:42:40.189Z,98443.91
2023-04-01T03:45:07.500Z,98437.88
2023-04-01T03:47:37.025Z,98451.66
2023-04-01T03:50:04.068Z,98446.84
2023-04-01T03:52:31.860Z,98442.06
2023-04-01T03:54:58.656Z,98448.41
2023-04-01T03:57:25.942Z,98454.38
2023-04-01T03:59:53.705Z,98448.91
2023-04-01T04:02:20.820Z,98459.53
2023-04-01T04:04:47.767Z,98456.72
2023-04-01T04:07:15.625Z,98452.75
2023-04-01T04:10:01.750Z,98449.44
2023-04-01T04:12:28.523Z,98450.91
2023-04-01T04:14:55.361Z,98454.16
2023-04-01T04:17:27.186Z,98445.97
2023-04-01T04:19:54.523Z,98458.06
2023-04-01T04:22:22.209Z,98461.53
2023-04-01T04:24:49.162Z,98460.88
2023-04-01T04:27:18.263Z,98455.09
2023-04-01T04:29:55.198Z,98454.59
2023-04-01T04:32:22.074Z,98454.41
2023-04-01T04:34:49.437Z,98453.63
2023-04-01T04:37:18.992Z,98448.81
2023-04-01T04:39:46.020Z,98455.97
2023-04-01T04:42:21.116Z,98451.31
2023-04-01T04:44:52.955Z,98441.88
2023-04-01T04:47:19.931Z,98448.38
2023-04-01T04:49:46.860Z,98449.19
2023-04-01T04:52:13.901Z,98454.16
2023-04-01T04:54:40.893Z,98442.91
2023-04-01T04:57:11.989Z,98442.38
2023-04-01T04:59:46.430Z,98439.88
2023-04-01T05:02:18.486Z,98439.22
2023-04-01T05:04:45.288Z,98441.25
2023-04-01T05:07:12.206Z,98434.09
2023-04-01T05:09:39.129Z,98427.13
2023-04-01T05:12:06.686Z,98435.03
2023-04-01T05:14:52.056Z,98430.28
2023-04-01T05:17:19.007Z,98411.03
2023-04-01T05:19:46.366Z,98423.13
2023-04-01T05:22:13.244Z,98416.47
2023-04-01T05:24:40.361Z,98419.66
2023-04-01T05:27:07.093Z,98419.75
2023-04-01T05:29:37.680Z,98407.19
2023-04-01T05:32:08.085Z,98425.72
2023-04-01T05:34:36.271Z,98417.28
2023-04-01T05:37:03.064Z,98400.78
2023-04-01T05:39:30.381Z,98415.59
2023-04-01T05:41:57.213Z,98405.94
2023-04-01T05:44:23.946Z,98399.81
2023-04-01T05:47:04.155Z,98400.47
2023-04-01T05:49:34.471Z,98396.13
2023-04-01T05:52:05.362Z,98389.84
2023-04-01T05:54:35.433Z,98386.16
2023-04-01T05:57:15.211Z,98395.09
2023-04-01T06:02:40.162Z,98392.50
2023-04-01T06:05:39.386Z,98402.16
2023-04-01T06:08:14.019Z,98406.44
2023-04-01T06:11:02.907Z,98404.31
2023-04-01T06:14:00.039Z,98405.34
2023-04-01T06:16:32.980Z,98395.69
2023-04-01T06:19:22.360Z,98398.25
2023-04-01T06:22:16.025Z,98405.19
2023-04-01T06:25:24.096Z,98399.88
2023-04-01T06:28:09.208Z,98392.84
2023-04-01T06:31:04.415Z,98413.59
2023-04-01T06:34:00.233Z,98394.06
2023-04-01T06:36:43.674Z,98409.63
2023-04-01T06:39:23.305Z,98424.75
2023-04-01T06:42:31.607Z,98408.50
2023-04-01T06:45:34.849Z,98413.69
2023-04-01T06:48:53.369Z,98409.69
2023-04-01T06:52:00.176Z,98413.16
2023-04-01T06:54:52.434Z,98418.28
2023-04-01T06:57:49.584Z,98417.47
2023-04-01T07:00:34.152Z,98419.13
2023-04-01T07:03:24.537Z,98423.78
2023-04-01T07:05:51.713Z,98417.97
2023-04-01T07:08:24.590Z,98419.13
2023-04-01T07:10:55.699Z,98420.31
2023-04-01T07:14:12.997Z,98421.25
2023-04-01T07:16:51.139Z,98415.09
2023-04-01T07:19:23.461Z,98419.13
2023-04-01T07:22:06.505Z,98430.09
2023-04-01T07:24:55.772Z,98412.66
2023-04-01T07:27:23.740Z,98408.81
2023-04-01T07:29:50.732Z,98423.47
2023-04-01T07:32:57.735Z,98422.16
2023-04-01T07:35:31.907Z,98418.63
2023-04-01T07:38:28.130Z,98418.34
2023-04-01T07:41:27.807Z,98428.31
2023-04-01T07:44:25.375Z,98433.44
2023-04-01T07:47:04.177Z,98429.47
2023-04-01T07:49:33.626Z,98435.97
2023-04-01T07:52:38.202Z,98435.34
2023-04-01T07:55:46.738Z,98433.19
2023-04-01T07:58:21.545Z,98423.56
2023-04-01T08:01:21.026Z,98433.19
2023-04-01T08:03:54.197Z,98439.84
2023-04-01T08:06:34.283Z,98437.53
2023-04-01T08:09:15.940Z,98431.59
2023-04-01T08:12:19.967Z,98444.38
2023-04-01T08:15:23.045Z,98445.81
2023-04-01T08:18:16.407Z,98441.84
2023-04-01T08:20:52.230Z,98443.50
2023-04-01T08:23:48.493Z,98440.19
2023-04-01T08:26:35.208Z,98451.16
2023-04-01T08:29:10.352Z,98452.44
2023-04-01T08:31:54.132Z,98453.75
2023-04-01T08:34:21.694Z,98442.19
2023-04-01T08:36:54.900Z,98442.44
2023-04-01T08:39:48.574Z,98448.78
2023-04-01T08:42:28.906Z,98448.81
2023-04-01T08:45:23.138Z,98437.34
2023-04-01T08:48:32.814Z,98446.38
2023-04-01T08:51:19.613Z,98455.16
2023-04-01T08:53:57.983Z,98444.81
2023-04-01T08:56:41.525Z,98446.84
2023-04-01T08:59:57.504Z,98443.72
2023-04-01T09:02:48.461Z,98449.47
2023-04-01T09:06:05.651Z,98451.09
2023-04-01T09:08:53.013Z,98445.16
2023-04-01T09:11:51.797Z,98450.31
2023-04-01T09:14:38.311Z,98450.25
2023-04-01T09:17:37.626Z,98447.09
2023-04-01T09:20:46.949Z,98457.34
2023-04-01T09:23:36.398Z,98457.09
2023-04-01T09:26:40.929Z,98445.66
2023-04-01T09:29:35.628Z,98439.69
2023-04-01T09:32:40.127Z,98455.16
2023-04-01T09:35:44.284Z,98455.44
2023-04-01T09:38:21.361Z,98443.00
2023-04-01T09:40:59.576Z,98452.91
2023-04-01T09:44:05.531Z,98447.34
2023-04-01T09:46:56.032Z,98457.06
2023-04-01T09:49:49.349Z,98457.09
2023-04-01T09:52:48.397Z,98452.91
2023-04-01T09:55:37.714Z,98464.88
2023-04-01T09:58:28.209Z,98464.88
2023-04-01T10:01:57.680Z,98470.19
2023-04-01T10:04:49.044Z,98464.00
2023-04-01T10:07:28.079Z,98486.75
2023-04-01T10:10:19.800Z,98466.88
2023-04-01T10:13:01.971Z,98462.72
2023-04-01T10:15:41.746Z,98475.53
2023-04-01T10:18:41.381Z,98478.34
2023-04-01T10:21:13.722Z,98474.31
2023-04-01T10:24:00.296Z,98482.25
2023-04-01T10:26:51.123Z,98475.72
2023-04-01T10:30:07.974Z,98481.53
2023-04-01T10:33:02.596Z,98476.13
2023-04-01T10:35:51.302Z,98483.13
2023-04-01T10:38:24.662Z,98471.78
2023-04-01T10:41:25.873Z,98483.41
2023-04-01T10:44:20.478Z,98486.78
2023-04-01T10:47:07.786Z,98486.13
2023-04-01T10:49:50.239Z,98473.78
2023-04-01T10:52:41.686Z,98482.09
2023-04-01T10:55:43.821Z,98483.59
2023-04-01T10:59:07.487Z,98479.75
2023-04-01T11:02:22.603Z,98473.31
2023-04-01T11:05:30.370Z,98486.97
2023-04-01T11:08:24.875Z,98478.94
2023-04-01T11:11:15.279Z,98477.13
2023-04-01T11:14:09.867Z,98485.25
2023-04-01T11:16:55.673Z,98484.28
2023-04-01T11:19:49.836Z,98491.13
2023-04-01T11:22:46.650Z,98495.25
2023-04-01T11:25:30.217Z,98481.94
2023-04-01T11:28:28.292Z,98486.19
2023-04-01T11:31:03.389Z,98482.75
2023-04-01T11:33:49.344Z,98490.72
2023-04-01T11:36:31.830Z,98489.50
2023-04-01T11:39:09.843Z,98490.00
2023-04-01T11:42:14.549Z,98487.88
2023-04-01T11:45:35.326Z,98499.16
2023-04-01T11:48:25.194Z,98499.38
2023-04-01T11:51:27.011Z,98492.97
2023-04-01T11:54:35.109Z,98498.03
2023-04-01T11:57:18.211Z,98508.50
2023-04-01T11:59:48.110Z,98500.03
2023-04-01T12:02:37.080Z,98505.97
2023-04-01T12:05:34.613Z,98506.19
2023-04-01T12:08:20.524Z,98513.97
2023-04-01T12:10:55.865Z,98524.13
2023-04-01T12:13:31.413Z,98521.25
2023-04-01T12:16:10.664Z,98516.75
2023-04-01T12:19:00.413Z,98501.16
2023-04-01T12:21:43.912Z,98519.41
2023-04-01T12:24:36.345Z,98520.22
2023-04-01T12:27:33.070Z,98519.25
2023-04-01T12:30:15.140Z,98523.25
2023-04-01T12:33:06.133Z,98523.38
2023-04-01T12:35:50.618Z,98531.53
2023-04-01T12:39:10.228Z,98525.28
2023-04-01T12:41:48.246Z,98528.41
2023-04-01T12:44:48.500Z,98521.28
2023-04-01T12:47:42.057Z,98534.84
2023-04-01T12:51:00.136Z,98527.53
2023-04-01T12:54:07.563Z,98534.38
2023-04-01T12:57:37.958Z,98531.38
2023-04-01T13:00:44.525Z,98542.47
2023-04-01T13:03:17.914Z,98540.31
2023-04-01T13:06:29.208Z,98540.31
2023-04-01T13:09:30.603Z,98549.47
2023-04-01T13:12:31.691Z,98540.81
2023-04-01T13:15:37.201Z,98544.31
2023-04-01T13:18:19.628Z,98534.28
2023-04-01T13:21:01.475Z,98548.13
2023-04-01T13:23:39.433Z,98545.44
2023-04-01T13:26:17.199Z,98548.59
2023-04-01T13:29:14.061Z,98552.16
2023-04-01T13:32:12.046Z,98559.75
2023-04-01T13:34:57.220Z,98559.59
2023-04-01T13:38:07.901Z,98564.91
2023-04-01T13:41:09.734Z,98564.56
2023-04-01T13:44:25.857Z,98555.75
2023-04-01T13:47:13.497Z,98558.72
2023-04-01T13:50:40.069Z,98560.56
2023-04-01T13:53:37.774Z,98561.94
2023-04-01T13:56:39.205Z,98568.06
2023-04-01T13:59:41.731Z,98574.19
2023-04-01T14:02:46.331Z,98564.59
2023-04-01T14:05:32.410Z,98570.19
2023-04-01T14:08:05.958Z,98582.66
2023-04-01T14:10:51.216Z,98577.22
2023-04-01T14:13:44.425Z,98576.03
2023-04-01T14:16:11.352Z,98575.38
2023-04-01T14:19:09.674Z,98585.00
2023-04-01T14:21:55.554Z,98577.53
2023-04-01T14:24:53.972Z,98576.56
2023-04-01T14:27:39.412Z,98573.69
2023-04-01T14:30:20.147Z,98586.88
2023-04-01T14:33:17.868Z,98579.88
2023-04-01T14:36:06.038Z,98585.50
2023-04-01T14:39:22.572Z,98592.63
2023-04-01T14:42:22.396Z,98592.97
2023-04-01T14:45:06.154Z,98590.34
2023-04-01T14:47:42.867Z,98587.56
2023-04-01T14:50:14.753Z,98598.97
2023-04-01T14:52:44.686Z,98591.31
2023-04-01T14:55:36.364Z,98609.63
2023-04-01T14:58:12.561Z,98595.16
2023-04-01T15:00:50.649Z,98603.13
2023-04-01T15:03:25.732Z,98596.66
2023-04-01T15:06:14.849Z,98615.09
2023-04-01T15:08:51.681Z,98613.44
2023-04-01T15:11:46.083Z,98613.25
2023-04-01T15:14:24.996Z,98613.59
2023-04-01T15:17:03.711Z,98616.25
2023-04-01T15:20:07.953Z,98614.25
2023-04-01T15:22:39.552Z,98621.56
2023-04-01T15:25:21.070Z,98625.06
2023-04-01T15:27:57.074Z,98630.88
2023-04-01T15:31:07.853Z,98625.41
2023-04-01T15:33:37.498Z,98625.06
2023-04-01T15:36:09.447Z,98632.72
2023-04-01T15:38:52.021Z,98635.72
2023-04-01T15:41:52.054Z,98633.06
2023-04-01T15:44:36.119Z,98632.88
2023-04-01T15:47:31.624Z,98633.88
2023-04-01T15:53:50.431Z,98655.66
2023-04-01T15:57:13.168Z,98653.97
2023-04-01T16:00:15.829Z,98650.16
2023-04-01T16:03:05.435Z,98643.34
2023-04-01T16:06:17.097Z,98647.00
2023-04-01T16:09:15.092Z,98657.63
2023-04-01T16:11:57.807Z,98654.66
2023-04-01T16:14:33.290Z,98655.97
2023-04-01T16:17:24.808Z,98658.28
2023-04-01T16:20:05.306Z,98655.81
2023-04-01T16:23:17.989Z,98659.97
2023-04-01T16:26:33.649Z,98655.97
2023-04-01T16:29:53.543Z,98663.94
2023-04-01T16:32:46.169Z,98666.09
2023-04-01T16:36:02.094Z,98672.56
2023-04-01T16:38:41.765Z,98669.78
2023-04-01T16:41:18.338Z,98670.59
2023-04-01T16:43:54.202Z,98673.09
2023-04-01T16:46:32.468Z,98676.06
2023-04-01T16:49:23.657Z,98690.34
2023-04-01T16:55:18.800Z,98696.50
2023-04-01T16:58:03.632Z,98696.66
2023-04-01T17:00:57.557Z,98686.88
2023-04-01T17:04:00.004Z,98694.16
2023-04-01T17:06:46.907Z,98697.00
2023-04-01T17:09:37.955Z,98708.28
2023-04-01T17:12:16.969Z,98703.31
2023-04-01T17:14:51.412Z,98719.91
2023-04-01T17:17:19.013Z,98702.81
2023-04-01T17:20:16.061Z,98724.06
2023-04-01T17:22:45.361Z,98720.75
2023-04-01T17:25:15.353Z,98735.88
2023-04-01T17:28:06.928Z,98733.38
2023-04-01T17:30:57.769Z,98735.88
2023-04-01T17:33:57.093Z,98739.84
2023-04-01T17:36:56.724Z,98748.97
2023-04-01T17:39:45.065Z,98747.16
2023-04-01T17:42:32.156Z,98752.31
2023-04-01T17:45:41.416Z,98748.66
2023-04-01T17:49:13.057Z,98762.13
2023-04-01T17:52:04.593Z,98753.28
2023-04-01T17:55:15.885Z,98765.06
2023-04-01T18:01:31.916Z,98769.56
2023-04-01T18:05:12.528Z,98761.94
2023-04-01T18:08:12.700Z,98766.56
2023-04-01T18:10:58.927Z,98773.38
2023-04-01T18:13:38.782Z,98772.22
2023-04-01T18:16:32.554Z,98782.50
2023-04-01T18:19:30.193Z,98791.31
2023-04-01T18:22:24.568Z,98792.50
2023-04-01T18:24:59.092Z,98791.00
2023-04-01T18:27:51.664Z,98795.97
2023-04-01T18:30:33.369Z,98796.13
2023-04-01T18:33:10.897Z,98797.47
2023-04-01T18:35:54.128Z,98795.78
2023-04-01T18:38:34.399Z,98815.22
2023-04-01T18:41:19.916Z,98801.59
2023-04-01T18:44:30.071Z,98813.69
2023-04-01T18:47:39.023Z,98820.66
2023-04-01T18:50:34.476Z,98825.81
2023-04-01T18:53:52.977Z,98834.44
2023-04-01T18:56:52.426Z,98840.41
2023-04-01T18:59:35.507Z,98850.38
2023-04-01T19:02:14.933Z,98853.19
2023-04-01T19:05:01.111Z,98853.84
2023-04-01T19:08:41.185Z,98864.94
2023-04-01T19:11:59.748Z,98875.38
2023-04-01T19:15:07.480Z,98877.38
2023-04-01T19:17:51.963Z,98875.72
2023-04-01T19:20:24.127Z,98887.06
2023-04-01T19:23:09.504Z,98882.41
2023-04-01T19:25:47.624Z,98879.09
2023-04-01T19:28:41.011Z,98880.56
2023-04-01T19:31:39.673Z,98881.25
2023-04-01T19:34:19.539Z,98892.38
2023-04-01T19:36:48.449Z,98889.22
2023-04-01T19:39:21.201Z,98897.19
2023-04-01T19:41:52.702Z,98896.84
2023-04-01T19:44:26.239Z,98900.66
2023-04-01T19:46:58.508Z,98899.19
2023-04-01T19:50:02.423Z,98895.69
2023-04-01T19:52:34.698Z,98893.69
2023-04-01T19:55:32.366Z,98891.38
2023-04-01T19:58:24.170Z,98891.03
2023-04-01T20:01:01.138Z,98888.84
2023-04-01T20:03:46.005Z,98902.13
2023-04-01T20:06:41.764Z,98907.09
2023-04-01T20:09:08.795Z,98903.97
2023-04-01T20:12:00.275Z,98909.59
2023-04-01T20:14:55.114Z,98917.22
2023-04-01T20:17:26.261Z,98908.59
2023-04-01T20:20:16.940Z,98910.06
2023-04-01T20:23:28.298Z,98909.91
2023-04-01T20:25:58.522Z,98913.91
2023-04-01T20:28:47.731Z,98917.03
2023-04-01T20:31:27.362Z,98921.53
2023-04-01T20:34:23.852Z,98925.19
2023-04-01T20:37:09.215Z,98931.81
2023-04-01T20:40:06.615Z,98933.50
2023-04-01T20:42:52.031Z,98928.97
2023-04-01T20:45:44.681Z,98934.66
2023-04-01T20:48:24.756Z,98938.81
2023-04-01T20:51:27.615Z,98947.75
2023-04-01T20:54:57.849Z,98936.66
2023-04-01T20:58:06.663Z,98950.88
2023-04-01T21:01:12.790Z,98950.03
2023-04-01T21:04:25.215Z,98955.72
2023-04-01T21:07:28.374Z,98963.34
2023-04-01T21:11:13.104Z,98960.84
2023-04-01T21:14:41.817Z,98966.50
2023-04-01T21:18:05.352Z,98967.81
2023-04-01T21:20:49.125Z,98966.97
2023-04-01T21:23:34.139Z,98967.34
2023-04-01T21:29:36.593Z,98967.47
2023-04-01T21:32:13.898Z,98981.44
2023-04-01T21:34:55.539Z,98985.28
2023-04-01T21:38:21.498Z,98994.03
2023-04-01T21:41:38.679Z,98996.69
2023-04-01T21:44:29.452Z,98992.22
2023-04-01T21:47:52.009Z,98992.22
2023-04-01T21:51:38.040Z,98991.34
2023-04-01T21:54:49.746Z,99001.84
2023-04-01T21:57:25.479Z,99009.50
2023-04-01T22:00:33.192Z,99007.13
2023-04-01T22:03:24.292Z,99012.25
2023-04-01T22:06:05.996Z,99013.00
2023-04-01T22:09:14.990Z,99013.44
2023-04-01T22:12:04.111Z,99015.44
2023-04-01T22:15:43.971Z,99004.94
2023-04-01T22:19:13.995Z,99012.44
2023-04-01T22:22:18.872Z,99016.06
2023-04-01T22:25:18.742Z,99014.72
2023-04-01T22:28:41.234Z,99010.69
2023-04-01T22:35:40.174Z,99024.22
2023-04-01T22:38:28.720Z,99033.31
2023-04-01T22:41:55.454Z,99037.56
2023-04-01T22:45:02.470Z,99039.22
2023-04-01T22:48:59.473Z,99033.22
2023-04-01T22:52:06.608Z,99032.44
2023-04-01T22:54:51.687Z,99039.81
2023-04-01T23:04:44.578Z,99045.25
2023-04-01T23:07:58.249Z,99051.22
2023-04-01T23:11:42.024Z,99051.81
2023-04-01T23:15:01.248Z,99064.25
2023-04-01T23:18:05.020Z,99061.44
2023-04-01T23:21:17.212Z,99065.63
2023-04-01T23:24:27.387Z,99064.25
2023-04-01T23:34:32.093Z,99088.97
2023-04-01T23:40:39.006Z,99097.63
2023-04-01T23:43:25.221Z,99106.72
2023-04-01T23:50:04.302Z,99101.41
2023-04-01T23:53:09.552Z,99099.16
2023-04-01T23:55:45.536Z,99101.41
2023-04-01T23:58:31.324Z,99114.75
